sensor_id;sensor_type;location;lat;lon;timestamp;P1;durP1;ratioP1;P2;durP2;ratioP2
43124;SDS011;49182;50.788;7.318;2022-11-15T00:00:30;11.60;;;7.10;;
43124;SDS011;49182;50.788;7.318;2022-11-15T00:03:16;13.40;;;7.13;;
43124;SDS011;49182;50.788;7.318;2022-11-15T00:06:02;11.55;;;6.53;;
43124;SDS011;49182;50.788;7.318;2022-11-15T00:08:48;14.95;;;6.25;;
43124;SDS011;49182;50.788;7.318;2022-11-15T00:11:34;13.05;;;7.30;;
43124;SDS011;49182;50.788;7.318;2022-11-15T00:14:20;14.20;;;7.40;;
43124;SDS011;49182;50.788;7.318;2022-11-15T00:17:05;12.35;;;7.03;;
43124;SDS011;49182;50.788;7.318;2022-11-15T00:19:50;12.82;;;6.60;;
43124;SDS011;49182;50.788;7.318;2022-11-15T00:22:35;11.68;;;6.85;;
43124;SDS011;49182;50.788;7.318;2022-11-15T00:25:20;13.05;;;6.95;;
43124;SDS011;49182;50.788;7.318;2022-11-15T00:28:06;12.20;;;6.50;;
43124;SDS011;49182;50.788;7.318;2022-11-15T00:30:52;10.57;;;6.40;;
43124;SDS011;49182;50.788;7.318;2022-11-15T00:33:38;11.18;;;6.13;;
43124;SDS011;49182;50.788;7.318;2022-11-15T00:36:23;9.88;;;6.03;;
43124;SDS011;49182;50.788;7.318;2022-11-15T00:39:08;10.98;;;6.38;;
43124;SDS011;49182;50.788;7.318;2022-11-15T00:41:53;10.32;;;5.80;;
43124;SDS011;49182;50.788;7.318;2022-11-15T00:44:39;11.52;;;6.85;;
43124;SDS011;49182;50.788;7.318;2022-11-15T00:47:25;12.30;;;6.43;;
43124;SDS011;49182;50.788;7.318;2022-11-15T00:50:11;11.48;;;5.75;;
43124;SDS011;49182;50.788;7.318;2022-11-15T00:52:59;10.82;;;6.10;;
43124;SDS011;49182;50.788;7.318;2022-11-15T00:55:44;11.40;;;6.55;;
43124;SDS011;49182;50.788;7.318;2022-11-15T00:58:31;15.05;;;7.00;;
43124;SDS011;49182;50.788;7.318;2022-11-15T01:01:16;13.23;;;5.90;;
43124;SDS011;49182;50.788;7.318;2022-11-15T01:04:03;14.60;;;7.15;;
43124;SDS011;49182;50.788;7.318;2022-11-15T01:06:48;12.18;;;6.25;;
43124;SDS011;49182;50.788;7.318;2022-11-15T01:09:33;10.95;;;6.22;;
43124;SDS011;49182;50.788;7.318;2022-11-15T01:12:18;11.20;;;5.97;;
43124;SDS011;49182;50.788;7.318;2022-11-15T01:15:04;10.20;;;5.65;;
43124;SDS011;49182;50.788;7.318;2022-11-15T01:17:50;8.35;;;4.97;;
43124;SDS011;49182;50.788;7.318;2022-11-15T01:20:39;11.15;;;6.25;;
43124;SDS011;49182;50.788;7.318;2022-11-15T01:23:25;10.27;;;5.57;;
43124;SDS011;49182;50.788;7.318;2022-11-15T01:26:11;9.93;;;5.68;;
43124;SDS011;49182;50.788;7.318;2022-11-15T01:28:58;13.00;;;7.03;;
43124;SDS011;49182;50.788;7.318;2022-11-15T01:31:43;12.07;;;5.93;;
43124;SDS011;49182;50.788;7.318;2022-11-15T01:34:29;12.52;;;6.30;;
43124;SDS011;49182;50.788;7.318;2022-11-15T01:37:15;14.23;;;8.15;;
43124;SDS011;49182;50.788;7.318;2022-11-15T01:40:01;13.23;;;7.90;;
43124;SDS011;49182;50.788;7.318;2022-11-15T01:42:46;14.40;;;7.55;;
43124;SDS011;49182;50.788;7.318;2022-11-15T01:45:31;13.82;;;7.15;;
43124;SDS011;49182;50.788;7.318;2022-11-15T01:48:16;12.77;;;6.97;;
43124;SDS011;49182;50.788;7.318;2022-11-15T01:51:02;11.85;;;6.63;;
43124;SDS011;49182;50.788;7.318;2022-11-15T01:56:43;12.10;;;6.55;;
43124;SDS011;49182;50.788;7.318;2022-11-15T01:59:32;10.07;;;6.20;;
43124;SDS011;49182;50.788;7.318;2022-11-15T02:02:18;13.27;;;6.63;;
43124;SDS011;49182;50.788;7.318;2022-11-15T02:05:03;11.00;;;6.00;;
43124;SDS011;49182;50.788;7.318;2022-11-15T02:07:49;11.95;;;6.57;;
43124;SDS011;49182;50.788;7.318;2022-11-15T02:10:35;12.77;;;7.18;;
43124;SDS011;49182;50.788;7.318;2022-11-15T02:13:21;12.77;;;7.22;;
43124;SDS011;49182;50.788;7.318;2022-11-15T02:16:09;12.50;;;7.70;;
43124;SDS011;49182;50.788;7.318;2022-11-15T02:19:02;13.73;;;7.82;;
43124;SDS011;49182;50.788;7.318;2022-11-15T02:22:00;17.77;;;8.27;;
43124;SDS011;49182;50.788;7.318;2022-11-15T02:28:30;12.68;;;6.93;;
43124;SDS011;49182;50.788;7.318;2022-11-15T02:31:31;11.02;;;6.75;;
43124;SDS011;49182;50.788;7.318;2022-11-15T02:34:25;11.85;;;6.63;;
43124;SDS011;49182;50.788;7.318;2022-11-15T02:37:26;12.48;;;6.45;;
43124;SDS011;49182;50.788;7.318;2022-11-15T02:40:17;13.57;;;6.72;;
43124;SDS011;49182;50.788;7.318;2022-11-15T02:43:12;10.32;;;5.97;;
43124;SDS011;49182;50.788;7.318;2022-11-15T02:46:02;11.07;;;5.88;;
43124;SDS011;49182;50.788;7.318;2022-11-15T02:48:54;9.48;;;5.78;;
43124;SDS011;49182;50.788;7.318;2022-11-15T02:51:40;8.88;;;5.80;;
43124;SDS011;49182;50.788;7.318;2022-11-15T02:54:29;10.35;;;5.63;;
43124;SDS011;49182;50.788;7.318;2022-11-15T02:57:16;9.50;;;5.57;;
43124;SDS011;49182;50.788;7.318;2022-11-15T03:00:06;9.18;;;5.25;;
43124;SDS011;49182;50.788;7.318;2022-11-15T03:03:00;9.35;;;5.20;;
43124;SDS011;49182;50.788;7.318;2022-11-15T03:06:04;9.35;;;5.72;;
43124;SDS011;49182;50.788;7.318;2022-11-15T03:09:02;9.48;;;4.72;;
43124;SDS011;49182;50.788;7.318;2022-11-15T03:11:50;10.75;;;5.82;;
43124;SDS011;49182;50.788;7.318;2022-11-15T03:14:42;8.82;;;5.70;;
43124;SDS011;49182;50.788;7.318;2022-11-15T03:17:37;10.20;;;5.18;;
43124;SDS011;49182;50.788;7.318;2022-11-15T03:20:25;8.07;;;4.90;;
43124;SDS011;49182;50.788;7.318;2022-11-15T03:23:14;10.20;;;5.47;;
43124;SDS011;49182;50.788;7.318;2022-11-15T03:25:59;10.40;;;5.80;;
43124;SDS011;49182;50.788;7.318;2022-11-15T03:28:46;11.63;;;5.82;;
43124;SDS011;49182;50.788;7.318;2022-11-15T03:31:36;9.65;;;5.70;;
43124;SDS011;49182;50.788;7.318;2022-11-15T03:34:34;8.45;;;4.90;;
43124;SDS011;49182;50.788;7.318;2022-11-15T03:37:24;8.90;;;5.13;;
43124;SDS011;49182;50.788;7.318;2022-11-15T03:40:16;9.10;;;5.63;;
43124;SDS011;49182;50.788;7.318;2022-11-15T03:43:03;9.13;;;5.35;;
43124;SDS011;49182;50.788;7.318;2022-11-15T03:45:53;8.38;;;4.90;;
43124;SDS011;49182;50.788;7.318;2022-11-15T03:48:41;9.60;;;5.63;;
43124;SDS011;49182;50.788;7.318;2022-11-15T03:51:31;9.18;;;5.95;;
43124;SDS011;49182;50.788;7.318;2022-11-15T03:54:17;11.68;;;5.88;;
43124;SDS011;49182;50.788;7.318;2022-11-15T03:57:03;8.70;;;5.22;;
43124;SDS011;49182;50.788;7.318;2022-11-15T03:59:48;9.48;;;6.05;;
43124;SDS011;49182;50.788;7.318;2022-11-15T04:02:34;8.90;;;5.53;;
43124;SDS011;49182;50.788;7.318;2022-11-15T04:05:19;10.45;;;5.40;;
43124;SDS011;49182;50.788;7.318;2022-11-15T04:08:04;9.65;;;4.85;;
43124;SDS011;49182;50.788;7.318;2022-11-15T04:10:49;10.32;;;5.15;;
43124;SDS011;49182;50.788;7.318;2022-11-15T04:13:36;8.68;;;5.40;;
43124;SDS011;49182;50.788;7.318;2022-11-15T04:16:20;7.03;;;4.45;;
43124;SDS011;49182;50.788;7.318;2022-11-15T04:19:06;12.40;;;6.53;;
43124;SDS011;49182;50.788;7.318;2022-11-15T04:21:51;8.70;;;4.43;;
43124;SDS011;49182;50.788;7.318;2022-11-15T04:24:36;7.20;;;4.45;;
43124;SDS011;49182;50.788;7.318;2022-11-15T04:27:21;7.72;;;4.82;;
43124;SDS011;49182;50.788;7.318;2022-11-15T04:30:08;7.30;;;4.20;;
43124;SDS011;49182;50.788;7.318;2022-11-15T04:32:54;8.13;;;4.97;;
43124;SDS011;49182;50.788;7.318;2022-11-15T04:35:39;9.55;;;4.18;;
43124;SDS011;49182;50.788;7.318;2022-11-15T04:38:24;8.73;;;4.20;;
43124;SDS011;49182;50.788;7.318;2022-11-15T04:41:09;7.70;;;4.30;;
43124;SDS011;49182;50.788;7.318;2022-11-15T04:43:54;6.80;;;4.28;;
43124;SDS011;49182;50.788;7.318;2022-11-15T04:46:41;7.40;;;4.20;;
43124;SDS011;49182;50.788;7.318;2022-11-15T04:49:26;9.13;;;4.80;;
43124;SDS011;49182;50.788;7.318;2022-11-15T04:52:11;11.38;;;5.20;;
43124;SDS011;49182;50.788;7.318;2022-11-15T04:54:56;8.70;;;4.53;;
43124;SDS011;49182;50.788;7.318;2022-11-15T04:57:41;8.77;;;3.97;;
43124;SDS011;49182;50.788;7.318;2022-11-15T05:00:27;7.43;;;4.20;;
43124;SDS011;49182;50.788;7.318;2022-11-15T05:03:14;14.90;;;7.70;;
43124;SDS011;49182;50.788;7.318;2022-11-15T05:05:59;18.10;;;9.02;;
43124;SDS011;49182;50.788;7.318;2022-11-15T05:08:44;13.05;;;5.90;;
43124;SDS011;49182;50.788;7.318;2022-11-15T05:11:30;9.57;;;5.32;;
43124;SDS011;49182;50.788;7.318;2022-11-15T05:14:15;7.88;;;4.57;;
43124;SDS011;49182;50.788;7.318;2022-11-15T05:17:00;11.68;;;5.40;;
43124;SDS011;49182;50.788;7.318;2022-11-15T05:19:46;8.15;;;4.50;;
43124;SDS011;49182;50.788;7.318;2022-11-15T05:22:32;6.70;;;3.78;;
43124;SDS011;49182;50.788;7.318;2022-11-15T05:25:17;6.40;;;3.72;;
43124;SDS011;49182;50.788;7.318;2022-11-15T05:28:02;7.53;;;4.22;;
43124;SDS011;49182;50.788;7.318;2022-11-15T05:30:47;7.50;;;4.18;;
43124;SDS011;49182;50.788;7.318;2022-11-15T05:33:33;5.60;;;3.45;;
43124;SDS011;49182;50.788;7.318;2022-11-15T05:36:21;8.50;;;3.90;;
43124;SDS011;49182;50.788;7.318;2022-11-15T05:39:12;9.02;;;4.32;;
43124;SDS011;49182;50.788;7.318;2022-11-15T05:41:58;8.05;;;4.45;;
43124;SDS011;49182;50.788;7.318;2022-11-15T05:44:47;9.23;;;4.70;;
43124;SDS011;49182;50.788;7.318;2022-11-15T05:47:34;6.13;;;3.40;;
43124;SDS011;49182;50.788;7.318;2022-11-15T05:50:22;11.20;;;5.43;;
43124;SDS011;49182;50.788;7.318;2022-11-15T05:53:09;10.15;;;4.38;;
43124;SDS011;49182;50.788;7.318;2022-11-15T05:55:57;8.90;;;4.40;;
43124;SDS011;49182;50.788;7.318;2022-11-15T05:58:42;8.45;;;4.65;;
43124;SDS011;49182;50.788;7.318;2022-11-15T06:01:27;5.78;;;3.10;;
43124;SDS011;49182;50.788;7.318;2022-11-15T06:04:13;8.95;;;5.55;;
43124;SDS011;49182;50.788;7.318;2022-11-15T06:06:58;8.27;;;4.78;;
43124;SDS011;49182;50.788;7.318;2022-11-15T06:09:45;10.85;;;4.47;;
43124;SDS011;49182;50.788;7.318;2022-11-15T06:12:30;8.07;;;4.47;;
43124;SDS011;49182;50.788;7.318;2022-11-15T06:15:15;9.45;;;4.13;;
43124;SDS011;49182;50.788;7.318;2022-11-15T06:18:01;8.25;;;4.25;;
43124;SDS011;49182;50.788;7.318;2022-11-15T06:20:47;7.30;;;3.60;;
43124;SDS011;49182;50.788;7.318;2022-11-15T06:23:33;6.88;;;3.97;;
43124;SDS011;49182;50.788;7.318;2022-11-15T06:26:20;4.80;;;2.75;;
43124;SDS011;49182;50.788;7.318;2022-11-15T06:29:05;5.68;;;2.83;;
43124;SDS011;49182;50.788;7.318;2022-11-15T06:31:50;5.82;;;2.90;;
43124;SDS011;49182;50.788;7.318;2022-11-15T06:34:35;6.75;;;3.33;;
43124;SDS011;49182;50.788;7.318;2022-11-15T06:37:20;5.28;;;3.00;;
43124;SDS011;49182;50.788;7.318;2022-11-15T06:40:06;6.68;;;3.72;;
43124;SDS011;49182;50.788;7.318;2022-11-15T06:42:58;6.00;;;3.25;;
43124;SDS011;49182;50.788;7.318;2022-11-15T06:45:43;6.30;;;3.13;;
43124;SDS011;49182;50.788;7.318;2022-11-15T06:48:29;6.43;;;3.22;;
43124;SDS011;49182;50.788;7.318;2022-11-15T06:51:15;7.65;;;3.50;;
43124;SDS011;49182;50.788;7.318;2022-11-15T06:54:00;5.95;;;3.00;;
43124;SDS011;49182;50.788;7.318;2022-11-15T06:56:45;6.18;;;2.63;;
43124;SDS011;49182;50.788;7.318;2022-11-15T06:59:31;5.38;;;2.90;;
43124;SDS011;49182;50.788;7.318;2022-11-15T07:02:24;4.85;;;2.63;;
43124;SDS011;49182;50.788;7.318;2022-11-15T07:05:09;5.95;;;2.60;;
43124;SDS011;49182;50.788;7.318;2022-11-15T07:07:55;8.07;;;2.65;;
43124;SDS011;49182;50.788;7.318;2022-11-15T07:10:41;4.75;;;2.28;;
43124;SDS011;49182;50.788;7.318;2022-11-15T07:13:26;7.43;;;2.72;;
43124;SDS011;49182;50.788;7.318;2022-11-15T07:16:13;6.65;;;2.55;;
43124;SDS011;49182;50.788;7.318;2022-11-15T07:18:58;4.15;;;2.17;;
43124;SDS011;49182;50.788;7.318;2022-11-15T07:21:44;6.60;;;2.60;;
43124;SDS011;49182;50.788;7.318;2022-11-15T07:24:29;5.57;;;2.53;;
43124;SDS011;49182;50.788;7.318;2022-11-15T07:27:14;5.32;;;2.50;;
43124;SDS011;49182;50.788;7.318;2022-11-15T07:29:59;5.57;;;2.80;;
43124;SDS011;49182;50.788;7.318;2022-11-15T07:32:46;6.07;;;3.40;;
43124;SDS011;49182;50.788;7.318;2022-11-15T07:35:31;7.18;;;3.22;;
43124;SDS011;49182;50.788;7.318;2022-11-15T07:38:16;6.85;;;2.75;;
43124;SDS011;49182;50.788;7.318;2022-11-15T07:41:02;5.65;;;3.15;;
43124;SDS011;49182;50.788;7.318;2022-11-15T07:43:50;7.53;;;2.88;;
43124;SDS011;49182;50.788;7.318;2022-11-15T07:46:36;4.30;;;2.00;;
43124;SDS011;49182;50.788;7.318;2022-11-15T07:49:22;5.65;;;2.50;;
43124;SDS011;49182;50.788;7.318;2022-11-15T07:52:07;4.22;;;2.55;;
43124;SDS011;49182;50.788;7.318;2022-11-15T07:54:53;4.18;;;2.05;;
43124;SDS011;49182;50.788;7.318;2022-11-15T07:57:38;4.35;;;2.05;;
43124;SDS011;49182;50.788;7.318;2022-11-15T08:00:23;11.60;;;4.43;;
43124;SDS011;49182;50.788;7.318;2022-11-15T08:03:09;4.88;;;2.83;;
43124;SDS011;49182;50.788;7.318;2022-11-15T08:05:56;5.72;;;3.15;;
43124;SDS011;49182;50.788;7.318;2022-11-15T08:08:41;9.25;;;2.58;;
43124;SDS011;49182;50.788;7.318;2022-11-15T08:11:26;8.57;;;1.83;;
43124;SDS011;49182;50.788;7.318;2022-11-15T08:14:11;3.35;;;1.92;;
43124;SDS011;49182;50.788;7.318;2022-11-15T08:16:56;3.95;;;1.98;;
43124;SDS011;49182;50.788;7.318;2022-11-15T08:19:42;5.60;;;2.55;;
43124;SDS011;49182;50.788;7.318;2022-11-15T08:22:28;4.35;;;2.42;;
43124;SDS011;49182;50.788;7.318;2022-11-15T08:25:13;4.50;;;2.10;;
43124;SDS011;49182;50.788;7.318;2022-11-15T08:27:59;5.22;;;2.20;;
43124;SDS011;49182;50.788;7.318;2022-11-15T08:30:46;6.97;;;2.13;;
43124;SDS011;49182;50.788;7.318;2022-11-15T08:33:31;3.83;;;2.20;;
43124;SDS011;49182;50.788;7.318;2022-11-15T08:36:18;5.90;;;2.20;;
43124;SDS011;49182;50.788;7.318;2022-11-15T08:39:04;4.18;;;2.13;;
43124;SDS011;49182;50.788;7.318;2022-11-15T08:41:49;4.63;;;2.05;;
43124;SDS011;49182;50.788;7.318;2022-11-15T08:44:35;3.33;;;2.10;;
43124;SDS011;49182;50.788;7.318;2022-11-15T08:47:20;3.75;;;2.10;;
43124;SDS011;49182;50.788;7.318;2022-11-15T08:50:05;8.07;;;2.35;;
43124;SDS011;49182;50.788;7.318;2022-11-15T08:52:51;5.85;;;2.28;;
43124;SDS011;49182;50.788;7.318;2022-11-15T08:55:38;4.63;;;2.45;;
43124;SDS011;49182;50.788;7.318;2022-11-15T08:58:24;5.50;;;2.40;;
43124;SDS011;49182;50.788;7.318;2022-11-15T09:01:14;5.57;;;2.40;;
43124;SDS011;49182;50.788;7.318;2022-11-15T09:04:02;5.28;;;2.20;;
43124;SDS011;49182;50.788;7.318;2022-11-15T09:06:47;4.10;;;2.20;;
43124;SDS011;49182;50.788;7.318;2022-11-15T09:09:33;5.38;;;2.22;;
43124;SDS011;49182;50.788;7.318;2022-11-15T09:12:19;4.07;;;2.30;;
43124;SDS011;49182;50.788;7.318;2022-11-15T09:15:05;3.90;;;1.90;;
43124;SDS011;49182;50.788;7.318;2022-11-15T09:17:51;4.00;;;2.10;;
43124;SDS011;49182;50.788;7.318;2022-11-15T09:20:36;3.78;;;1.30;;
43124;SDS011;49182;50.788;7.318;2022-11-15T09:23:21;3.60;;;1.80;;
43124;SDS011;49182;50.788;7.318;2022-11-15T09:26:07;2.50;;;1.00;;
43124;SDS011;49182;50.788;7.318;2022-11-15T09:28:54;5.28;;;1.33;;
43124;SDS011;49182;50.788;7.318;2022-11-15T09:31:39;3.10;;;1.10;;
43124;SDS011;49182;50.788;7.318;2022-11-15T09:34:24;4.40;;;1.10;;
43124;SDS011;49182;50.788;7.318;2022-11-15T09:37:09;5.00;;;2.15;;
43124;SDS011;49182;50.788;7.318;2022-11-15T09:39:54;5.32;;;1.30;;
43124;SDS011;49182;50.788;7.318;2022-11-15T09:42:45;2.67;;;1.13;;
43124;SDS011;49182;50.788;7.318;2022-11-15T09:45:43;2.33;;;0.90;;
43124;SDS011;49182;50.788;7.318;2022-11-15T09:48:49;3.17;;;1.25;;
43124;SDS011;49182;50.788;7.318;2022-11-15T09:51:33;4.18;;;1.20;;
43124;SDS011;49182;50.788;7.318;2022-11-15T09:54:03;2.95;;;1.25;;
43124;SDS011;49182;50.788;7.318;2022-11-15T09:57:03;2.33;;;0.90;;
43124;SDS011;49182;50.788;7.318;2022-11-15T09:59:46;3.33;;;1.05;;
43124;SDS011;49182;50.788;7.318;2022-11-15T10:02:43;3.25;;;0.95;;
43124;SDS011;49182;50.788;7.318;2022-11-15T10:05:19;2.28;;;0.90;;
43124;SDS011;49182;50.788;7.318;2022-11-15T10:07:50;3.58;;;0.80;;
43124;SDS011;49182;50.788;7.318;2022-11-15T10:10:24;1.70;;;0.60;;
43124;SDS011;49182;50.788;7.318;2022-11-15T10:12:55;4.28;;;0.85;;
43124;SDS011;49182;50.788;7.318;2022-11-15T10:15:23;2.45;;;0.90;;
43124;SDS011;49182;50.788;7.318;2022-11-15T10:17:55;2.17;;;0.75;;
43124;SDS011;49182;50.788;7.318;2022-11-15T10:20:34;2.40;;;0.93;;
43124;SDS011;49182;50.788;7.318;2022-11-15T10:23:10;2.67;;;0.85;;
43124;SDS011;49182;50.788;7.318;2022-11-15T10:25:39;3.87;;;0.90;;
43124;SDS011;49182;50.788;7.318;2022-11-15T10:28:09;2.90;;;0.88;;
43124;SDS011;49182;50.788;7.318;2022-11-15T10:30:41;4.30;;;0.60;;
43124;SDS011;49182;50.788;7.318;2022-11-15T10:33:12;2.50;;;0.80;;
43124;SDS011;49182;50.788;7.318;2022-11-15T10:35:45;3.10;;;0.63;;
43124;SDS011;49182;50.788;7.318;2022-11-15T10:38:12;1.70;;;0.50;;
43124;SDS011;49182;50.788;7.318;2022-11-15T10:40:39;1.83;;;0.55;;
43124;SDS011;49182;50.788;7.318;2022-11-15T10:43:13;2.28;;;0.70;;
43124;SDS011;49182;50.788;7.318;2022-11-15T10:45:42;1.95;;;0.63;;
43124;SDS011;49182;50.788;7.318;2022-11-15T10:48:20;2.58;;;0.80;;
43124;SDS011;49182;50.788;7.318;2022-11-15T10:50:48;3.22;;;0.60;;
43124;SDS011;49182;50.788;7.318;2022-11-15T10:53:18;1.73;;;0.60;;
43124;SDS011;49182;50.788;7.318;2022-11-15T10:55:51;3.75;;;1.45;;
43124;SDS011;49182;50.788;7.318;2022-11-15T10:58:21;1.67;;;0.82;;
43124;SDS011;49182;50.788;7.318;2022-11-15T11:00:55;1.58;;;0.60;;
43124;SDS011;49182;50.788;7.318;2022-11-15T11:03:27;2.42;;;0.73;;
43124;SDS011;49182;50.788;7.318;2022-11-15T11:06:06;2.90;;;0.80;;
43124;SDS011;49182;50.788;7.318;2022-11-15T11:08:35;3.40;;;0.80;;
43124;SDS011;49182;50.788;7.318;2022-11-15T11:11:02;2.67;;;0.70;;
43124;SDS011;49182;50.788;7.318;2022-11-15T11:13:31;2.58;;;0.77;;
43124;SDS011;49182;50.788;7.318;2022-11-15T11:16:03;4.22;;;0.80;;
43124;SDS011;49182;50.788;7.318;2022-11-15T11:18:51;2.05;;;0.70;;
43124;SDS011;49182;50.788;7.318;2022-11-15T11:21:26;2.70;;;0.80;;
43124;SDS011;49182;50.788;7.318;2022-11-15T11:24:08;2.88;;;0.60;;
43124;SDS011;49182;50.788;7.318;2022-11-15T11:26:40;3.60;;;0.90;;
43124;SDS011;49182;50.788;7.318;2022-11-15T11:29:19;1.98;;;0.60;;
43124;SDS011;49182;50.788;7.318;2022-11-15T11:31:55;2.65;;;0.77;;
43124;SDS011;49182;50.788;7.318;2022-11-15T11:34:33;2.33;;;0.70;;
43124;SDS011;49182;50.788;7.318;2022-11-15T11:37:12;4.03;;;1.05;;
43124;SDS011;49182;50.788;7.318;2022-11-15T11:39:46;3.50;;;0.73;;
43124;SDS011;49182;50.788;7.318;2022-11-15T11:42:26;1.98;;;0.73;;
43124;SDS011;49182;50.788;7.318;2022-11-15T11:45:05;4.10;;;1.38;;
43124;SDS011;49182;50.788;7.318;2022-11-15T11:47:46;2.05;;;0.70;;
43124;SDS011;49182;50.788;7.318;2022-11-15T11:50:17;2.70;;;0.70;;
43124;SDS011;49182;50.788;7.318;2022-11-15T11:52:48;1.50;;;0.50;;
43124;SDS011;49182;50.788;7.318;2022-11-15T11:55:31;3.70;;;1.10;;
43124;SDS011;49182;50.788;7.318;2022-11-15T11:58:04;2.50;;;0.90;;
43124;SDS011;49182;50.788;7.318;2022-11-15T12:00:38;2.40;;;0.90;;
43124;SDS011;49182;50.788;7.318;2022-11-15T12:03:09;2.25;;;0.80;;
43124;SDS011;49182;50.788;7.318;2022-11-15T12:05:41;3.67;;;1.08;;
43124;SDS011;49182;50.788;7.318;2022-11-15T12:10:59;2.40;;;1.00;;
43124;SDS011;49182;50.788;7.318;2022-11-15T12:13:33;4.95;;;1.58;;
43124;SDS011;49182;50.788;7.318;2022-11-15T12:16:02;3.88;;;1.05;;
43124;SDS011;49182;50.788;7.318;2022-11-15T12:18:36;2.88;;;1.10;;
43124;SDS011;49182;50.788;7.318;2022-11-15T12:21:05;3.35;;;1.20;;
43124;SDS011;49182;50.788;7.318;2022-11-15T12:23:41;3.47;;;1.33;;
43124;SDS011;49182;50.788;7.318;2022-11-15T12:26:11;3.13;;;1.27;;
43124;SDS011;49182;50.788;7.318;2022-11-15T12:28:45;5.85;;;1.63;;
43124;SDS011;49182;50.788;7.318;2022-11-15T12:31:35;4.32;;;1.60;;
43124;SDS011;49182;50.788;7.318;2022-11-15T12:34:05;3.92;;;1.27;;
43124;SDS011;49182;50.788;7.318;2022-11-15T12:36:43;3.90;;;1.55;;
43124;SDS011;49182;50.788;7.318;2022-11-15T12:39:10;4.18;;;1.60;;
43124;SDS011;49182;50.788;7.318;2022-11-15T12:41:38;5.20;;;1.77;;
43124;SDS011;49182;50.788;7.318;2022-11-15T12:44:10;6.32;;;1.85;;
43124;SDS011;49182;50.788;7.318;2022-11-15T12:52:10;4.03;;;1.50;;
43124;SDS011;49182;50.788;7.318;2022-11-15T12:54:53;3.35;;;1.45;;
43124;SDS011;49182;50.788;7.318;2022-11-15T12:57:26;3.60;;;1.55;;
43124;SDS011;49182;50.788;7.318;2022-11-15T12:59:59;4.70;;;1.85;;
43124;SDS011;49182;50.788;7.318;2022-11-15T13:02:28;3.45;;;1.40;;
43124;SDS011;49182;50.788;7.318;2022-11-15T13:08:03;4.57;;;1.60;;
43124;SDS011;49182;50.788;7.318;2022-11-15T13:10:30;4.00;;;1.52;;
43124;SDS011;49182;50.788;7.318;2022-11-15T13:12:59;3.50;;;1.50;;
43124;SDS011;49182;50.788;7.318;2022-11-15T13:15:37;4.40;;;1.88;;
43124;SDS011;49182;50.788;7.318;2022-11-15T13:18:28;6.20;;;1.77;;
43124;SDS011;49182;50.788;7.318;2022-11-15T13:20:59;3.38;;;1.45;;
43124;SDS011;49182;50.788;7.318;2022-11-15T13:23:29;3.60;;;1.60;;
43124;SDS011;49182;50.788;7.318;2022-11-15T13:26:06;3.85;;;1.90;;
43124;SDS011;49182;50.788;7.318;2022-11-15T13:28:39;3.93;;;1.60;;
43124;SDS011;49182;50.788;7.318;2022-11-15T13:33:45;4.15;;;1.45;;
43124;SDS011;49182;50.788;7.318;2022-11-15T13:36:13;4.15;;;1.63;;
43124;SDS011;49182;50.788;7.318;2022-11-15T13:38:43;4.22;;;1.42;;
43124;SDS011;49182;50.788;7.318;2022-11-15T13:41:11;4.60;;;1.73;;
43124;SDS011;49182;50.788;7.318;2022-11-15T13:43:44;4.00;;;1.75;;
43124;SDS011;49182;50.788;7.318;2022-11-15T13:46:11;4.10;;;1.42;;
43124;SDS011;49182;50.788;7.318;2022-11-15T13:48:40;3.78;;;1.50;;
43124;SDS011;49182;50.788;7.318;2022-11-15T13:51:09;3.35;;;1.58;;
43124;SDS011;49182;50.788;7.318;2022-11-15T13:53:44;4.25;;;1.42;;
43124;SDS011;49182;50.788;7.318;2022-11-15T13:56:14;4.20;;;1.55;;
43124;SDS011;49182;50.788;7.318;2022-11-15T13:58:42;4.07;;;1.55;;
43124;SDS011;49182;50.788;7.318;2022-11-15T14:01:13;3.85;;;1.50;;
43124;SDS011;49182;50.788;7.318;2022-11-15T14:03:46;4.15;;;1.50;;
43124;SDS011;49182;50.788;7.318;2022-11-15T14:06:18;3.42;;;1.30;;
43124;SDS011;49182;50.788;7.318;2022-11-15T14:08:59;3.63;;;1.52;;
43124;SDS011;49182;50.788;7.318;2022-11-15T14:11:29;3.13;;;1.35;;
43124;SDS011;49182;50.788;7.318;2022-11-15T14:14:11;3.63;;;1.60;;
43124;SDS011;49182;50.788;7.318;2022-11-15T14:16:41;3.55;;;1.33;;
43124;SDS011;49182;50.788;7.318;2022-11-15T14:19:09;3.65;;;1.50;;
43124;SDS011;49182;50.788;7.318;2022-11-15T14:21:37;4.38;;;1.38;;
43124;SDS011;49182;50.788;7.318;2022-11-15T14:24:42;4.93;;;1.40;;
43124;SDS011;49182;50.788;7.318;2022-11-15T14:27:17;3.75;;;1.40;;
43124;SDS011;49182;50.788;7.318;2022-11-15T14:29:46;7.43;;;1.70;;
43124;SDS011;49182;50.788;7.318;2022-11-15T14:32:14;3.22;;;1.50;;
43124;SDS011;49182;50.788;7.318;2022-11-15T14:34:42;3.67;;;1.23;;
43124;SDS011;49182;50.788;7.318;2022-11-15T14:37:14;5.10;;;1.38;;
43124;SDS011;49182;50.788;7.318;2022-11-15T14:39:47;2.53;;;1.23;;
43124;SDS011;49182;50.788;7.318;2022-11-15T14:42:14;3.75;;;1.70;;
43124;SDS011;49182;50.788;7.318;2022-11-15T14:44:41;3.92;;;1.20;;
43124;SDS011;49182;50.788;7.318;2022-11-15T14:47:11;3.28;;;1.20;;
43124;SDS011;49182;50.788;7.318;2022-11-15T14:49:38;3.70;;;1.20;;
43124;SDS011;49182;50.788;7.318;2022-11-15T14:52:22;3.03;;;1.27;;
43124;SDS011;49182;50.788;7.318;2022-11-15T14:54:59;5.30;;;1.55;;
43124;SDS011;49182;50.788;7.318;2022-11-15T14:57:26;3.88;;;1.35;;
43124;SDS011;49182;50.788;7.318;2022-11-15T14:59:53;4.35;;;1.30;;
43124;SDS011;49182;50.788;7.318;2022-11-15T15:02:21;3.40;;;1.25;;
43124;SDS011;49182;50.788;7.318;2022-11-15T15:04:49;4.10;;;1.30;;
43124;SDS011;49182;50.788;7.318;2022-11-15T15:07:16;5.32;;;1.40;;
43124;SDS011;49182;50.788;7.318;2022-11-15T15:09:44;3.72;;;1.13;;
43124;SDS011;49182;50.788;7.318;2022-11-15T15:12:16;2.83;;;1.30;;
43124;SDS011;49182;50.788;7.318;2022-11-15T15:14:45;4.75;;;1.50;;
43124;SDS011;49182;50.788;7.318;2022-11-15T15:17:12;4.50;;;1.60;;
43124;SDS011;49182;50.788;7.318;2022-11-15T15:19:39;3.63;;;1.10;;
43124;SDS011;49182;50.788;7.318;2022-11-15T15:22:06;2.53;;;1.25;;
43124;SDS011;49182;50.788;7.318;2022-11-15T15:24:35;3.03;;;1.35;;
43124;SDS011;49182;50.788;7.318;2022-11-15T15:27:02;3.97;;;1.42;;
43124;SDS011;49182;50.788;7.318;2022-11-15T15:29:30;4.80;;;1.58;;
43124;SDS011;49182;50.788;7.318;2022-11-15T15:31:56;3.25;;;1.40;;
43124;SDS011;49182;50.788;7.318;2022-11-15T15:34:23;2.85;;;1.10;;
43124;SDS011;49182;50.788;7.318;2022-11-15T15:36:49;3.38;;;1.33;;
43124;SDS011;49182;50.788;7.318;2022-11-15T15:39:32;5.00;;;1.70;;
43124;SDS011;49182;50.788;7.318;2022-11-15T15:41:58;3.28;;;1.05;;
43124;SDS011;49182;50.788;7.318;2022-11-15T15:44:25;4.95;;;2.30;;
43124;SDS011;49182;50.788;7.318;2022-11-15T15:46:53;5.35;;;1.42;;
43124;SDS011;49182;50.788;7.318;2022-11-15T15:49:19;3.28;;;1.42;;
43124;SDS011;49182;50.788;7.318;2022-11-15T15:51:46;3.10;;;1.40;;
43124;SDS011;49182;50.788;7.318;2022-11-15T15:54:12;4.70;;;1.55;;
43124;SDS011;49182;50.788;7.318;2022-11-15T15:56:39;3.45;;;1.60;;
43124;SDS011;49182;50.788;7.318;2022-11-15T15:59:05;3.95;;;1.42;;
43124;SDS011;49182;50.788;7.318;2022-11-15T16:01:32;4.40;;;1.30;;
43124;SDS011;49182;50.788;7.318;2022-11-15T16:04:00;3.95;;;1.30;;
43124;SDS011;49182;50.788;7.318;2022-11-15T16:06:33;3.78;;;1.52;;
43124;SDS011;49182;50.788;7.318;2022-11-15T16:09:02;3.85;;;1.60;;
43124;SDS011;49182;50.788;7.318;2022-11-15T16:11:46;6.28;;;2.00;;
43124;SDS011;49182;50.788;7.318;2022-11-15T16:14:13;6.97;;;1.77;;
43124;SDS011;49182;50.788;7.318;2022-11-15T16:16:39;4.13;;;1.40;;
43124;SDS011;49182;50.788;7.318;2022-11-15T16:19:07;4.47;;;1.40;;
43124;SDS011;49182;50.788;7.318;2022-11-15T16:21:36;6.35;;;1.50;;
43124;SDS011;49182;50.788;7.318;2022-11-15T16:24:03;3.30;;;1.52;;
43124;SDS011;49182;50.788;7.318;2022-11-15T16:26:30;6.32;;;1.50;;